Time;durP1;ratioP1;P1;durP2;ratioP2;P2;SDS_P1;SDS_P2;PMS_P1;PMS_P2;Temp;Humidity;BMP_temperature;BMP_pressure;BME280_temperature;BME280_humidity;BME280_pressure;Samples;Min_cycle;Max_cycle;Signal;HPM_P1;HPM_P2
2020/01/29 00:00:15;;;;;;;1.95;1.59;;;;;;;18.67;39.17;99271.53;;;;-44
2020/01/29 00:03:15;;;;;;;2.26;1.43;;;;;;;18.65;39.16;99257.27;;;;-44
2020/01/29 00:06:15;;;;;;;1.87;1.52;;;;;;;18.64;39.17;99246.53;;;;-44
2020/01/29 00:09:15;;;;;;;1.60;1.50;;;;;;;18.63;39.12;99249.45;;;;-44
2020/01/29 00:12:15;;;;;;;2.18;1.49;;;;;;;18.61;39.13;99246.98;;;;-45
2020/01/29 00:15:31;;;;;;;2.21;1.66;;;;;;;18.60;39.14;99249.02;;;;-44
2020/01/29 00:24:15;;;;;;;1.68;1.48;;;;;;;18.56;39.13;99255.00;;;;-44
2020/01/29 00:27:15;;;;;;;1.60;1.50;;;;;;;18.55;39.19;99257.81;;;;-44
2020/01/29 00:30:15;;;;;;;2.17;1.33;;;;;;;18.53;39.17;99264.97;;;;-44
2020/01/29 00:33:15;;;;;;;1.98;1.57;;;;;;;18.53;39.18;99268.55;;;;-44
2020/01/29 00:36:15;;;;;;;1.53;1.34;;;;;;;18.51;39.19;99273.34;;;;-44
2020/01/29 00:39:15;;;;;;;1.81;1.50;;;;;;;18.50;39.20;99272.38;;;;-44
2020/01/29 00:42:15;;;;;;;1.60;1.49;;;;;;;18.48;39.22;99279.88;;;;-44
2020/01/29 00:45:15;;;;;;;1.60;1.50;;;;;;;18.47;39.24;99286.94;;;;-44
2020/01/29 00:48:15;;;;;;;1.65;1.41;;;;;;;18.46;39.22;99287.91;;;;-44
2020/01/29 00:51:15;;;;;;;1.50;1.40;;;;;;;18.44;39.25;99298.14;;;;-44
2020/01/29 00:54:15;;;;;;;1.57;1.44;;;;;;;18.44;39.23;99307.91;;;;-44
2020/01/29 00:57:15;;;;;;;1.50;1.40;;;;;;;18.42;39.26;99309.18;;;;-44
2020/01/29 01:00:16;;;;;;;1.50;1.40;;;;;;;18.40;39.22;99316.97;;;;-44
2020/01/29 01:03:15;;;;;;;1.51;1.37;;;;;;;18.39;39.24;99319.95;;;;-44
2020/01/29 01:06:15;;;;;;;1.49;1.39;;;;;;;18.38;39.28;99324.13;;;;-44
2020/01/29 01:09:15;;;;;;;1.42;1.31;;;;;;;18.37;39.28;99337.31;;;;-44
2020/01/29 01:12:33;;;;;;;1.73;1.39;;;;;;;18.36;39.29;99346.94;;;;-44
2020/01/29 01:15:56;;;;;;;2.01;1.43;;;;;;;18.34;39.28;99351.75;;;;-44
2020/01/29 01:18:24;;;;;;;1.48;1.38;;;;;;;18.33;39.29;99359.14;;;;-44
2020/01/29 01:21:15;;;;;;;1.65;1.42;;;;;;;18.31;39.30;99367.81;;;;-47
2020/01/29 01:24:15;;;;;;;1.53;1.41;;;;;;;18.31;39.30;99376.20;;;;-47
2020/01/29 01:27:15;;;;;;;1.33;1.23;;;;;;;18.29;39.29;99388.63;;;;-54
2020/01/29 01:33:15;;;;;;;1.40;1.30;;;;;;;18.28;39.29;99400.33;;;;-44
2020/01/29 01:36:15;;;;;;;1.57;1.47;;;;;;;18.27;39.28;99406.98;;;;-53
2020/01/29 01:39:15;;;;;;;1.43;1.30;;;;;;;18.26;39.24;99418.66;;;;-54
2020/01/29 01:42:15;;;;;;;1.43;1.31;;;;;;;18.24;39.27;99420.05;;;;-47
2020/01/29 01:45:15;;;;;;;1.44;1.33;;;;;;;18.23;39.28;99426.23;;;;-44
2020/01/29 01:48:15;;;;;;;1.40;1.30;;;;;;;18.22;39.28;99433.06;;;;-54
2020/01/29 01:51:15;;;;;;;1.40;1.30;;;;;;;18.21;39.32;99442.38;;;;-44
2020/01/29 01:54:15;;;;;;;1.35;1.25;;;;;;;18.20;39.32;99447.27;;;;-47
2020/01/29 01:57:15;;;;;;;1.40;1.30;;;;;;;18.19;39.32;99441.48;;;;-44
2020/01/29 02:00:15;;;;;;;1.57;1.34;;;;;;;18.18;39.32;99442.45;;;;-53
2020/01/29 02:03:15;;;;;;;1.31;1.21;;;;;;;18.16;39.32;99452.68;;;;-49
2020/01/29 02:06:15;;;;;;;1.24;1.15;;;;;;;18.16;39.31;99466.45;;;;-53
2020/01/29 02:09:15;;;;;;;1.34;1.24;;;;;;;18.14;39.34;99474.00;;;;-44
2020/01/29 02:12:15;;;;;;;1.30;1.20;;;;;;;18.13;39.34;99478.88;;;;-44
2020/01/29 02:15:15;;;;;;;1.20;1.10;;;;;;;18.13;39.32;99474.70;;;;-49
2020/01/29 02:18:15;;;;;;;1.35;1.25;;;;;;;18.11;39.32;99475.39;;;;-49
2020/01/29 02:21:15;;;;;;;1.36;1.26;;;;;;;18.10;39.34;99485.05;;;;-44
2020/01/29 02:24:15;;;;;;;1.35;1.25;;;;;;;18.09;39.34;99485.85;;;;-48
2020/01/29 02:28:04;;;;;;;1.32;1.19;;;;;;;18.08;39.33;99487.72;;;;-49
2020/01/29 02:31:22;;;;;;;1.31;1.21;;;;;;;18.07;39.34;99501.73;;;;-53
2020/01/29 02:34:15;;;;;;;1.18;1.11;;;;;;;18.05;39.33;99508.61;;;;-49
2020/01/29 02:37:15;;;;;;;1.14;1.06;;;;;;;18.06;39.36;99515.89;;;;-47
2020/01/29 02:40:15;;;;;;;1.24;1.17;;;;;;;18.04;39.37;99525.70;;;;-44
2020/01/29 02:43:15;;;;;;;1.20;1.10;;;;;;;18.04;39.37;99526.02;;;;-53
2020/01/29 02:46:28;;;;;;;1.35;1.22;;;;;;;18.03;39.33;99534.33;;;;-55
2020/01/29 02:49:15;;;;;;;1.33;1.23;;;;;;;18.02;39.36;99530.88;;;;-50
2020/01/29 02:52:15;;;;;;;1.26;1.16;;;;;;;18.01;39.35;99536.53;;;;-49
2020/01/29 02:55:15;;;;;;;1.20;1.12;;;;;;;17.99;39.37;99544.91;;;;-50
2020/01/29 02:58:15;;;;;;;1.32;1.21;;;;;;;17.98;39.37;99555.06;;;;-50
2020/01/29 03:01:15;;;;;;;1.40;1.30;;;;;;;17.99;39.37;99555.84;;;;-54
2020/01/29 03:04:15;;;;;;;1.10;1.05;;;;;;;17.98;39.38;99570.33;;;;-48
2020/01/29 03:07:15;;;;;;;1.09;1.09;;;;;;;17.97;39.40;99580.39;;;;-48
2020/01/29 03:10:14;;;;;;;1.03;1.00;;;;;;;17.95;39.40;99578.67;;;;-48
2020/01/29 03:13:15;;;;;;;1.10;1.00;;;;;;;17.96;39.33;99576.61;;;;-55
2020/01/29 03:16:33;;;;;;;1.31;1.21;;;;;;;17.94;39.39;99585.66;;;;-45
2020/01/29 03:22:37;;;;;;;1.21;1.11;;;;;;;17.93;39.38;99594.20;;;;-55
2020/01/29 03:25:15;;;;;;;1.28;1.18;;;;;;;17.92;39.35;99595.50;;;;-50
2020/01/29 03:28:15;;;;;;;1.40;1.30;;;;;;;17.91;39.40;99599.64;;;;-50
2020/01/29 03:31:15;;;;;;;1.11;1.05;;;;;;;17.90;39.37;99597.20;;;;-45
2020/01/29 03:34:15;;;;;;;1.20;1.10;;;;;;;17.90;39.40;99606.95;;;;-48
2020/01/29 03:37:15;;;;;;;1.23;1.10;;;;;;;17.89;39.38;99618.88;;;;-48
2020/01/29 03:40:15;;;;;;;1.39;1.25;;;;;;;17.88;39.40;99631.43;;;;-48
2020/01/29 03:43:15;;;;;;;1.17;1.10;;;;;;;17.86;39.41;99633.80;;;;-48
2020/01/29 03:46:15;;;;;;;1.28;1.18;;;;;;;17.86;39.39;99639.71;;;;-50
2020/01/29 03:49:15;;;;;;;1.05;1.05;;;;;;;17.85;39.39;99641.78;;;;-50
2020/01/29 03:52:15;;;;;;;1.19;1.10;;;;;;;17.85;39.42;99639.27;;;;-50
2020/01/29 03:55:15;;;;;;;1.31;1.21;;;;;;;17.84;39.36;99642.34;;;;-54
2020/01/29 03:58:15;;;;;;;1.24;1.14;;;;;;;17.83;39.43;99643.44;;;;-54
2020/01/29 04:01:15;;;;;;;1.00;1.00;;;;;;;17.82;39.39;99651.34;;;;-54
2020/01/29 04:04:15;;;;;;;1.19;1.10;;;;;;;17.82;39.42;99658.03;;;;-55
2020/01/29 04:07:15;;;;;;;1.18;1.08;;;;;;;17.82;39.41;99656.86;;;;-54
2020/01/29 04:10:15;;;;;;;1.30;1.20;;;;;;;17.85;39.48;99667.39;;;;-55
2020/01/29 04:13:34;;;;;;;1.10;1.10;;;;;;;17.85;39.47;99667.39;;;;-54
2020/01/29 04:24:15;;;;;;;2.08;1.45;;;;;;;17.59;37.81;99687.95;;;;-55
2020/01/29 04:27:15;;;;;;;1.67;1.45;;;;;;;17.40;37.42;99686.95;;;;-51
2020/01/29 04:30:15;;;;;;;2.01;1.48;;;;;;;17.27;37.18;99698.34;;;;-50
2020/01/29 04:33:15;;;;;;;2.33;1.35;;;;;;;17.15;37.01;99696.72;;;;-50
2020/01/29 04:36:15;;;;;;;2.27;1.40;;;;;;;17.01;36.93;99704.70;;;;-50
2020/01/29 04:39:15;;;;;;;2.83;1.43;;;;;;;17.16;37.37;99702.13;;;;-45
2020/01/29 04:42:15;;;;;;;1.89;1.29;;;;;;;17.29;37.67;99706.11;;;;-45
2020/01/29 04:45:15;;;;;;;2.31;1.26;;;;;;;17.39;37.82;99711.28;;;;-45
2020/01/29 04:48:15;;;;;;;4.49;1.37;;;;;;;17.47;38.02;99714.61;;;;-45
2020/01/29 04:51:15;;;;;;;1.30;1.20;;;;;;;17.55;38.16;99722.02;;;;-48
2020/01/29 04:54:15;;;;;;;1.46;1.34;;;;;;;17.61;38.25;99725.53;;;;-48
2020/01/29 04:57:15;;;;;;;1.48;1.24;;;;;;;17.66;38.24;99725.06;;;;-48
2020/01/29 05:00:15;;;;;;;1.30;1.20;;;;;;;17.73;38.26;99731.26;;;;-48
2020/01/29 05:03:15;;;;;;;1.12;1.06;;;;;;;17.78;38.33;99737.20;;;;-45
2020/01/29 05:06:15;;;;;;;1.58;1.23;;;;;;;17.85;38.27;99747.56;;;;-54
2020/01/29 05:09:15;;;;;;;1.23;1.13;;;;;;;17.90;38.33;99747.70;;;;-54
2020/01/29 05:12:15;;;;;;;1.68;1.10;;;;;;;17.96;38.38;99754.84;;;;-55
2020/01/29 05:15:15;;;;;;;1.30;1.20;;;;;;;18.00;38.46;99760.02;;;;-55
2020/01/29 05:18:15;;;;;;;1.81;1.09;;;;;;;18.06;38.53;99772.02;;;;-54
2020/01/29 05:21:15;;;;;;;1.79;1.11;;;;;;;18.10;38.57;99775.02;;;;-55
2020/01/29 05:24:15;;;;;;;1.21;1.11;;;;;;;18.14;38.57;99785.19;;;;-55
2020/01/29 05:27:15;;;;;;;1.26;1.16;;;;;;;18.17;38.61;99788.38;;;;-55
2020/01/29 05:30:15;;;;;;;1.26;1.16;;;;;;;18.20;38.63;99794.55;;;;-55
2020/01/29 05:33:15;;;;;;;1.07;0.99;;;;;;;18.24;38.62;99801.26;;;;-55
2020/01/29 05:36:15;;;;;;;1.31;1.21;;;;;;;18.27;38.69;99807.52;;;;-55
2020/01/29 05:39:15;;;;;;;1.63;1.15;;;;;;;18.28;38.66;99800.98;;;;-55
2020/01/29 05:42:15;;;;;;;1.11;1.03;;;;;;;18.31;38.68;99801.77;;;;-55
2020/01/29 05:45:15;;;;;;;1.23;1.10;;;;;;;18.33;38.78;99798.50;;;;-55
2020/01/29 05:48:15;;;;;;;1.19;1.09;;;;;;;18.34;38.65;99797.44;;;;-55
2020/01/29 05:51:15;;;;;;;1.67;1.08;;;;;;;18.36;38.72;99797.41;;;;-55
2020/01/29 05:54:15;;;;;;;1.51;1.21;;;;;;;18.36;38.71;99799.52;;;;-55
2020/01/29 05:57:15;;;;;;;1.57;1.05;;;;;;;18.37;38.68;99805.23;;;;-56
2020/01/29 06:00:15;;;;;;;1.08;1.07;;;;;;;18.38;38.68;99810.36;;;;-55
2020/01/29 06:03:15;;;;;;;1.42;0.99;;;;;;;18.38;38.68;99812.13;;;;-54
2020/01/29 06:06:15;;;;;;;1.09;1.00;;;;;;;18.39;38.64;99810.50;;;;-55
2020/01/29 06:09:15;;;;;;;1.19;1.09;;;;;;;18.39;38.64;99806.42;;;;-55
2020/01/29 06:12:15;;;;;;;0.95;0.95;;;;;;;18.39;38.63;99804.38;;;;-49
2020/01/29 06:15:15;;;;;;;1.14;1.04;;;;;;;18.39;38.65;99806.81;;;;-48
2020/01/29 06:18:15;;;;;;;0.93;0.93;;;;;;;18.39;38.62;99810.27;;;;-48
2020/01/29 06:21:15;;;;;;;2.83;1.14;;;;;;;18.40;38.77;99812.94;;;;-48
2020/01/29 06:24:15;;;;;;;3.74;1.10;;;;;;;18.41;39.02;99815.75;;;;-47
2020/01/29 06:27:15;;;;;;;1.07;0.93;;;;;;;18.43;39.08;99824.26;;;;-47
2020/01/29 06:30:15;;;;;;;0.99;0.99;;;;;;;18.44;39.14;99834.33;;;;-48
2020/01/29 06:33:15;;;;;;;1.69;1.00;;;;;;;18.45;39.13;99836.64;;;;-47
2020/01/29 06:36:15;;;;;;;2.41;1.10;;;;;;;18.46;39.08;99835.52;;;;-47
2020/01/29 06:39:15;;;;;;;1.48;1.10;;;;;;;18.48;39.21;99836.42;;;;-47
2020/01/29 06:42:15;;;;;;;1.08;0.96;;;;;;;18.51;39.23;99841.63;;;;-49
2020/01/29 06:45:15;;;;;;;2.00;1.09;;;;;;;18.50;39.06;99851.34;;;;-49
2020/01/29 06:48:15;;;;;;;1.17;1.07;;;;;;;18.49;38.84;99852.34;;;;-49
2020/01/29 06:51:15;;;;;;;1.57;0.99;;;;;;;18.50;38.80;99849.77;;;;-49
2020/01/29 06:54:15;;;;;;;1.25;1.02;;;;;;;18.50;38.78;99852.18;;;;-49
2020/01/29 06:57:15;;;;;;;2.98;0.96;;;;;;;18.52;38.75;99855.44;;;;-48
2020/01/29 07:00:15;;;;;;;0.87;0.87;;;;;;;18.54;38.80;99858.45;;;;-49
2020/01/29 07:03:15;;;;;;;2.19;1.04;;;;;;;18.55;38.70;99855.72;;;;-49
2020/01/29 07:06:15;;;;;;;1.39;0.89;;;;;;;18.57;38.71;99866.77;;;;-49
2020/01/29 07:09:15;;;;;;;1.23;0.99;;;;;;;18.59;38.69;99862.09;;;;-49
2020/01/29 07:12:15;;;;;;;1.04;0.93;;;;;;;18.61;38.70;99862.34;;;;-49
2020/01/29 07:15:18;;;;;;;0.94;0.89;;;;;;;18.62;38.68;99860.94;;;;-49
2020/01/29 07:18:15;;;;;;;1.23;0.96;;;;;;;18.64;38.74;99866.88;;;;-49
2020/01/29 07:21:15;;;;;;;0.82;0.82;;;;;;;18.66;38.69;99874.97;;;;-49
2020/01/29 07:24:15;;;;;;;1.10;1.01;;;;;;;18.67;38.75;99880.94;;;;-49
2020/01/29 07:27:15;;;;;;;1.10;1.00;;;;;;;18.68;38.71;99894.95;;;;-49
2020/01/29 07:30:15;;;;;;;0.93;0.91;;;;;;;18.69;38.67;99896.83;;;;-49
2020/01/29 07:33:15;;;;;;;1.12;0.99;;;;;;;18.70;38.67;99908.58;;;;-49
2020/01/29 07:36:15;;;;;;;1.12;1.02;;;;;;;18.71;38.68;99914.88;;;;-49
2020/01/29 07:39:15;;;;;;;0.82;0.82;;;;;;;18.73;38.68;99919.97;;;;-49
2020/01/29 07:42:15;;;;;;;0.97;0.95;;;;;;;18.74;38.65;99923.69;;;;-49
2020/01/29 07:45:15;;;;;;;1.49;0.94;;;;;;;18.76;38.67;99931.06;;;;-50
2020/01/29 07:48:15;;;;;;;1.02;0.95;;;;;;;18.76;38.66;99936.75;;;;-49
2020/01/29 07:51:15;;;;;;;0.86;0.86;;;;;;;18.79;38.71;99944.23;;;;-49
2020/01/29 07:54:15;;;;;;;0.88;0.88;;;;;;;18.80;38.68;99945.50;;;;-49
2020/01/29 07:57:15;;;;;;;0.97;0.97;;;;;;;18.82;38.74;99948.92;;;;-49
2020/01/29 08:00:15;;;;;;;1.15;1.00;;;;;;;18.85;38.68;99951.45;;;;-49
2020/01/29 08:03:15;;;;;;;1.20;1.10;;;;;;;18.86;38.70;99951.98;;;;-49
2020/01/29 08:06:15;;;;;;;3.05;1.00;;;;;;;18.91;38.74;99959.61;;;;-48
2020/01/29 08:09:15;;;;;;;2.78;1.10;;;;;;;18.93;39.12;99963.97;;;;-48
2020/01/29 08:12:15;;;;;;;0.97;0.91;;;;;;;18.97;39.13;99965.20;;;;-49
2020/01/29 08:15:15;;;;;;;1.77;1.10;;;;;;;19.01;39.26;99965.35;;;;-51
2020/01/29 08:18:15;;;;;;;1.25;1.03;;;;;;;19.06;39.21;99967.83;;;;-51
2020/01/29 08:21:15;;;;;;;1.26;1.11;;;;;;;19.11;39.28;99961.38;;;;-52
2020/01/29 08:24:15;;;;;;;1.15;1.00;;;;;;;19.16;39.31;99966.53;;;;-52
2020/01/29 08:27:15;;;;;;;1.20;1.10;;;;;;;19.18;39.20;99966.80;;;;-49
2020/01/29 08:30:15;;;;;;;1.65;0.90;;;;;;;19.24;39.37;99970.84;;;;-48
2020/01/29 08:33:15;;;;;;;1.10;1.00;;;;;;;19.29;39.34;99970.20;;;;-47
2020/01/29 08:36:15;;;;;;;1.24;1.00;;;;;;;19.31;39.25;99971.44;;;;-49
2020/01/29 08:39:15;;;;;;;1.13;1.00;;;;;;;19.35;39.27;99969.59;;;;-54
2020/01/29 08:42:15;;;;;;;1.12;0.97;;;;;;;19.40;39.50;99974.69;;;;-55
2020/01/29 08:45:15;;;;;;;1.06;0.97;;;;;;;19.43;39.49;99974.13;;;;-57
2020/01/29 08:48:15;;;;;;;1.15;1.05;;;;;;;19.47;39.42;99972.17;;;;-54
2020/01/29 08:51:15;;;;;;;1.91;1.20;;;;;;;19.49;39.39;99973.95;;;;-57
2020/01/29 08:54:15;;;;;;;1.21;1.00;;;;;;;19.51;39.09;99974.09;;;;-52
2020/01/29 08:57:15;;;;;;;1.38;1.14;;;;;;;19.54;39.33;99973.70;;;;-51
2020/01/29 09:00:20;;;;;;;1.87;1.10;;;;;;;19.57;39.25;99969.63;;;;-49
2020/01/29 09:03:15;;;;;;;1.29;1.05;;;;;;;19.59;39.19;99969.52;;;;-50
2020/01/29 09:06:17;;;;;;;1.23;1.13;;;;;;;19.62;39.37;99968.19;;;;-47
2020/01/29 09:09:15;;;;;;;1.99;1.00;;;;;;;19.65;39.17;99964.38;;;;-61
2020/01/29 09:12:15;;;;;;;1.20;1.10;;;;;;;19.66;39.18;99961.91;;;;-49
2020/01/29 09:15:15;;;;;;;1.40;1.05;;;;;;;19.68;38.95;99957.52;;;;-55
2020/01/29 09:18:15;;;;;;;6.37;1.21;;;;;;;19.70;38.92;99946.27;;;;-55
2020/01/29 09:21:15;;;;;;;1.81;1.05;;;;;;;19.70;38.81;99945.30;;;;-55
2020/01/29 09:24:15;;;;;;;1.74;1.06;;;;;;;19.68;38.64;99951.09;;;;-54
2020/01/29 09:27:15;;;;;;;5.27;1.21;;;;;;;19.71;39.07;99955.02;;;;-44
2020/01/29 09:30:15;;;;;;;9.31;1.44;;;;;;;19.69;38.32;99959.70;;;;-50
2020/01/29 09:33:15;;;;;;;2.72;1.25;;;;;;;19.69;38.04;99970.08;;;;-55
2020/01/29 09:36:15;;;;;;;2.17;1.39;;;;;;;19.69;37.76;99981.14;;;;-60
2020/01/29 09:39:15;;;;;;;2.51;1.51;;;;;;;19.69;37.58;99987.00;;;;-54
2020/01/29 09:42:15;;;;;;;2.95;1.47;;;;;;;19.71;38.75;99984.56;;;;-58
2020/01/29 09:45:15;;;;;;;2.01;1.31;;;;;;;19.71;37.93;99986.74;;;;-54
2020/01/29 09:48:15;;;;;;;2.25;1.57;;;;;;;19.73;37.94;99987.81;;;;-44
2020/01/29 09:51:15;;;;;;;2.35;1.60;;;;;;;19.74;37.69;99982.86;;;;-49
2020/01/29 09:54:15;;;;;;;2.15;1.37;;;;;;;19.75;37.61;99989.60;;;;-49
2020/01/29 09:57:15;;;;;;;2.14;1.49;;;;;;;19.76;37.73;99994.06;;;;-44
2020/01/29 10:00:15;;;;;;;2.02;1.41;;;;;;;19.76;37.22;100001.44;;;;-46
2020/01/29 10:03:15;;;;;;;3.31;1.57;;;;;;;19.78;37.28;100002.34;;;;-47
2020/01/29 10:06:15;;;;;;;2.70;1.53;;;;;;;19.80;37.23;99996.31;;;;-44
2020/01/29 10:09:15;;;;;;;2.51;1.48;;;;;;;19.80;36.98;100001.91;;;;-46
2020/01/29 10:12:15;;;;;;;2.92;1.61;;;;;;;19.82;37.28;100003.99;;;;-46
2020/01/29 10:15:15;;;;;;;1.93;1.47;;;;;;;19.82;37.53;100000.58;;;;-45
2020/01/29 10:18:15;;;;;;;1.87;1.50;;;;;;;19.83;37.13;99993.64;;;;-46
2020/01/29 10:21:15;;;;;;;3.23;1.46;;;;;;;19.84;37.11;99995.02;;;;-45
2020/01/29 10:24:15;;;;;;;2.98;1.57;;;;;;;19.85;37.29;99996.80;;;;-46
2020/01/29 10:27:15;;;;;;;5.84;1.60;;;;;;;19.88;37.93;99990.23;;;;-51
2020/01/29 10:30:15;;;;;;;3.01;1.54;;;;;;;19.95;38.51;99995.54;;;;-46
2020/01/29 10:33:15;;;;;;;2.31;1.42;;;;;;;19.97;38.22;99995.78;;;;-48
2020/01/29 10:36:15;;;;;;;3.49;1.41;;;;;;;19.99;38.21;99992.23;;;;-54
2020/01/29 10:39:15;;;;;;;2.45;1.49;;;;;;;20.03;37.88;99994.68;;;;-52
2020/01/29 10:42:15;;;;;;;6.53;1.66;;;;;;;20.01;38.06;100003.86;;;;-49
2020/01/29 10:45:15;;;;;;;4.77;1.65;;;;;;;20.03;38.21;100014.22;;;;-49
2020/01/29 10:48:15;;;;;;;4.33;1.71;;;;;;;20.06;38.14;100014.39;;;;-48
2020/01/29 10:51:15;;;;;;;2.83;1.53;;;;;;;20.08;38.24;100012.28;;;;-52
2020/01/29 10:57:15;;;;;;;3.29;1.52;;;;;;;20.10;38.43;100000.39;;;;-50
2020/01/29 11:00:15;;;;;;;4.98;1.61;;;;;;;20.11;38.21;100000.42;;;;-50
2020/01/29 11:03:15;;;;;;;3.51;1.78;;;;;;;20.13;38.41;100009.44;;;;-48
2020/01/29 11:06:15;;;;;;;10.49;1.80;;;;;;;20.15;38.59;99996.70;;;;-53
2020/01/29 11:09:15;;;;;;;5.33;1.60;;;;;;;20.16;38.51;99996.97;;;;-54
2020/01/29 11:12:25;;;;;;;7.07;1.67;;;;;;;20.18;38.93;100001.23;;;;-52
2020/01/29 11:15:52;;;;;;;8.99;1.74;;;;;;;20.22;39.07;100007.84;;;;-45
2020/01/29 11:18:15;;;;;;;9.74;1.81;;;;;;;20.24;39.07;100001.77;;;;-52
2020/01/29 11:21:15;;;;;;;11.33;1.84;;;;;;;20.25;38.97;99997.05;;;;-53
2020/01/29 11:24:15;;;;;;;7.19;1.61;;;;;;;20.27;38.92;100002.11;;;;-55
2020/01/29 11:27:15;;;;;;;8.07;1.57;;;;;;;20.28;38.96;100003.02;;;;-60
2020/01/29 11:30:15;;;;;;;5.81;1.57;;;;;;;20.29;38.95;100001.27;;;;-56
2020/01/29 11:33:15;;;;;;;5.59;1.67;;;;;;;20.29;38.84;99999.19;;;;-47
2020/01/29 11:36:15;;;;;;;3.21;1.57;;;;;;;20.30;38.57;99993.26;;;;-47
2020/01/29 11:39:15;;;;;;;3.19;1.44;;;;;;;20.32;38.65;99984.44;;;;-47
2020/01/29 11:42:15;;;;;;;4.38;1.57;;;;;;;20.30;38.49;99982.80;;;;-45
2020/01/29 11:45:15;;;;;;;6.43;1.79;;;;;;;20.30;38.18;99991.98;;;;-49
2020/01/29 11:48:15;;;;;;;3.21;1.51;;;;;;;20.29;38.25;99994.87;;;;-52
2020/01/29 11:51:15;;;;;;;4.02;1.58;;;;;;;20.27;38.31;99997.69;;;;-52
2020/01/29 11:54:15;;;;;;;8.05;1.86;;;;;;;20.25;38.10;99994.83;;;;-47
2020/01/29 11:57:15;;;;;;;5.69;1.80;;;;;;;20.19;37.27;99994.22;;;;-48
2020/01/29 12:00:15;;;;;;;7.01;1.89;;;;;;;20.16;37.69;99987.92;;;;-49
2020/01/29 12:03:15;;;;;;;3.39;1.98;;;;;;;20.13;37.55;99984.06;;;;-48
2020/01/29 12:06:15;;;;;;;4.49;1.78;;;;;;;20.10;37.67;99981.84;;;;-45
2020/01/29 12:09:15;;;;;;;4.56;1.78;;;;;;;20.12;37.83;99985.10;;;;-46
2020/01/29 12:12:15;;;;;;;3.93;1.68;;;;;;;20.13;37.60;99986.08;;;;-51
2020/01/29 12:15:15;;;;;;;4.48;1.54;;;;;;;20.15;37.72;99986.88;;;;-46
2020/01/29 12:18:15;;;;;;;2.84;1.39;;;;;;;20.17;37.85;99981.48;;;;-51
2020/01/29 12:21:15;;;;;;;3.22;1.53;;;;;;;20.19;37.72;99976.69;;;;-51
2020/01/29 12:24:15;;;;;;;2.51;1.60;;;;;;;20.20;37.84;99984.70;;;;-54
2020/01/29 12:27:15;;;;;;;3.23;1.55;;;;;;;20.20;37.82;99990.00;;;;-49
2020/01/29 12:30:15;;;;;;;3.36;1.33;;;;;;;20.20;37.80;99990.33;;;;-51
2020/01/29 12:33:15;;;;;;;2.35;1.42;;;;;;;20.22;37.81;100001.37;;;;-51
2020/01/29 12:36:15;;;;;;;4.09;1.72;;;;;;;20.21;37.84;100004.12;;;;-50
2020/01/29 12:39:15;;;;;;;3.49;1.71;;;;;;;20.24;38.00;100008.11;;;;-47
2020/01/29 12:42:15;;;;;;;4.05;1.44;;;;;;;20.27;38.11;99998.48;;;;-49
2020/01/29 12:45:15;;;;;;;2.82;1.40;;;;;;;20.27;38.00;100003.69;;;;-49
2020/01/29 12:48:15;;;;;;;3.61;1.55;;;;;;;20.26;37.96;100002.81;;;;-48
2020/01/29 12:51:15;;;;;;;3.54;1.60;;;;;;;20.24;37.91;99991.44;;;;-49
2020/01/29 12:54:15;;;;;;;2.48;1.61;;;;;;;20.25;37.91;99982.66;;;;-49
2020/01/29 12:57:15;;;;;;;3.81;1.48;;;;;;;20.25;38.04;99984.13;;;;-49
2020/01/29 13:00:15;;;;;;;5.13;1.63;;;;;;;20.28;38.11;99988.73;;;;-50
2020/01/29 13:03:15;;;;;;;3.55;1.60;;;;;;;20.27;38.38;99984.27;;;;-48
2020/01/29 13:06:15;;;;;;;6.99;1.59;;;;;;;20.28;38.15;99980.05;;;;-51
2020/01/29 13:09:15;;;;;;;16.59;1.90;;;;;;;20.33;38.69;99986.31;;;;-51
2020/01/29 13:12:15;;;;;;;6.35;1.68;;;;;;;20.38;39.01;99982.36;;;;-48
2020/01/29 13:15:15;;;;;;;6.67;1.72;;;;;;;20.43;39.23;99989.83;;;;-41
2020/01/29 13:18:15;;;;;;;6.48;1.60;;;;;;;20.44;39.30;99991.27;;;;-50
2020/01/29 13:21:15;;;;;;;5.19;1.60;;;;;;;20.46;38.89;99986.31;;;;-48
2020/01/29 13:24:18;;;;;;;5.25;1.59;;;;;;;20.47;38.69;99985.06;;;;-49
2020/01/29 13:27:14;;;;;;;5.87;1.56;;;;;;;20.50;38.86;99983.42;;;;-46
2020/01/29 13:30:15;;;;;;;2.59;1.47;;;;;;;20.49;38.81;99977.45;;;;-46
2020/01/29 13:33:15;;;;;;;4.68;1.51;;;;;;;20.46;38.42;99983.39;;;;-47
2020/01/29 13:36:15;;;;;;;3.71;1.56;;;;;;;20.46;38.39;99990.56;;;;-47
2020/01/29 13:39:15;;;;;;;3.27;1.47;;;;;;;20.48;38.53;99988.13;;;;-51
2020/01/29 13:42:15;;;;;;;5.75;1.69;;;;;;;20.50;38.65;99991.91;;;;-46
2020/01/29 13:45:15;;;;;;;3.50;1.61;;;;;;;20.50;38.60;100004.89;;;;-48
2020/01/29 13:48:15;;;;;;;4.08;1.40;;;;;;;20.52;38.69;99999.22;;;;-54
2020/01/29 13:51:15;;;;;;;3.19;1.49;;;;;;;20.54;38.69;100000.43;;;;-62
2020/01/29 13:54:15;;;;;;;2.81;1.49;;;;;;;20.55;38.52;100002.61;;;;-49
2020/01/29 13:57:15;;;;;;;3.56;1.52;;;;;;;20.54;38.76;99999.09;;;;-49
2020/01/29 14:00:15;;;;;;;3.01;1.53;;;;;;;20.56;38.74;100001.63;;;;-48
2020/01/29 14:03:15;;;;;;;5.47;1.65;;;;;;;20.57;38.69;100001.84;;;;-49
2020/01/29 14:06:15;;;;;;;4.11;1.49;;;;;;;20.57;38.67;100010.83;;;;-47
2020/01/29 14:09:15;;;;;;;3.59;1.43;;;;;;;20.56;38.56;100022.44;;;;-42
2020/01/29 14:12:15;;;;;;;5.03;1.31;;;;;;;20.59;38.75;100030.32;;;;-53
2020/01/29 14:15:16;;;;;;;2.50;1.41;;;;;;;20.61;38.73;100042.73;;;;-46
2020/01/29 14:18:15;;;;;;;4.97;1.59;;;;;;;20.60;38.63;100043.11;;;;-46
2020/01/29 14:21:15;;;;;;;4.65;1.63;;;;;;;20.62;38.58;100045.86;;;;-45
2020/01/29 14:24:15;;;;;;;4.32;1.49;;;;;;;20.60;38.51;100052.94;;;;-51
2020/01/29 14:27:15;;;;;;;3.35;1.49;;;;;;;20.64;38.66;100062.80;;;;-51
2020/01/29 14:30:15;;;;;;;3.42;1.51;;;;;;;20.62;38.48;100064.41;;;;-49
2020/01/29 14:33:15;;;;;;;3.33;1.41;;;;;;;20.61;38.36;100076.69;;;;-49
2020/01/29 14:36:15;;;;;;;4.65;1.47;;;;;;;20.60;38.58;100081.89;;;;-48
2020/01/29 14:39:15;;;;;;;4.36;1.67;;;;;;;20.61;38.56;100087.70;;;;-48
2020/01/29 14:42:15;;;;;;;2.67;1.49;;;;;;;20.60;38.40;100091.92;;;;-45
2020/01/29 14:45:15;;;;;;;4.95;1.51;;;;;;;20.58;38.29;100108.23;;;;-45
2020/01/29 14:48:15;;;;;;;2.59;1.33;;;;;;;20.56;38.28;100118.83;;;;-46
2020/01/29 14:51:15;;;;;;;1.71;1.28;;;;;;;20.56;38.31;100120.24;;;;-48
2020/01/29 14:54:15;;;;;;;3.49;1.34;;;;;;;20.55;38.28;100125.14;;;;-48
2020/01/29 14:57:15;;;;;;;1.97;1.13;;;;;;;20.54;38.26;100129.44;;;;-45
2020/01/29 15:00:15;;;;;;;3.39;1.44;;;;;;;20.52;38.27;100134.40;;;;-45
2020/01/29 15:03:15;;;;;;;2.82;1.50;;;;;;;20.51;38.30;100147.68;;;;-44
2020/01/29 15:06:15;;;;;;;3.87;1.37;;;;;;;20.50;38.29;100155.50;;;;-45
2020/01/29 15:09:15;;;;;;;2.82;1.35;;;;;;;20.50;38.24;100156.03;;;;-45
2020/01/29 15:12:15;;;;;;;1.72;1.30;;;;;;;20.49;38.22;100154.79;;;;-45
2020/01/29 15:15:15;;;;;;;1.90;1.27;;;;;;;20.48;38.25;100159.98;;;;-44
2020/01/29 15:18:15;;;;;;;2.01;1.23;;;;;;;20.48;38.27;100161.16;;;;-48
2020/01/29 15:21:15;;;;;;;1.87;1.20;;;;;;;20.47;38.21;100154.48;;;;-54
2020/01/29 15:24:15;;;;;;;1.55;1.23;;;;;;;20.47;38.25;100168.08;;;;-44
2020/01/29 15:27:15;;;;;;;1.80;1.33;;;;;;;20.47;38.26;100168.23;;;;-45
2020/01/29 15:30:15;;;;;;;2.26;1.19;;;;;;;20.48;38.21;100168.88;;;;-45
2020/01/29 15:33:15;;;;;;;2.85;1.30;;;;;;;20.48;38.17;100167.10;;;;-48
2020/01/29 15:36:15;;;;;;;1.43;1.18;;;;;;;20.47;38.26;100166.73;;;;-48
2020/01/29 15:39:15;;;;;;;2.31;1.20;;;;;;;20.47;38.27;100175.99;;;;-48
2020/01/29 15:42:15;;;;;;;1.92;1.22;;;;;;;20.46;38.22;100187.20;;;;-48
2020/01/29 15:45:15;;;;;;;1.75;1.20;;;;;;;20.48;38.17;100190.63;;;;-48
2020/01/29 15:48:15;;;;;;;2.22;1.25;;;;;;;20.47;38.24;100187.63;;;;-48
2020/01/29 15:51:15;;;;;;;1.51;1.11;;;;;;;20.46;38.22;100187.59;;;;-48
2020/01/29 15:54:15;;;;;;;2.40;1.17;;;;;;;20.46;38.24;100189.84;;;;-48
2020/01/29 15:57:14;;;;;;;2.07;1.19;;;;;;;20.46;38.22;100186.42;;;;-48
2020/01/29 16:00:15;;;;;;;1.60;1.16;;;;;;;20.46;38.23;100193.97;;;;-48
2020/01/29 16:03:15;;;;;;;1.91;1.23;;;;;;;20.47;38.26;100197.09;;;;-48
2020/01/29 16:06:15;;;;;;;1.42;1.19;;;;;;;20.47;38.21;100198.70;;;;-48
2020/01/29 16:09:15;;;;;;;1.96;1.32;;;;;;;20.47;38.16;100203.06;;;;-48
2020/01/29 16:12:15;;;;;;;1.59;1.26;;;;;;;20.48;38.19;100208.09;;;;-48
2020/01/29 16:15:15;;;;;;;2.25;1.14;;;;;;;20.48;38.32;100212.16;;;;-49
2020/01/29 16:18:15;;;;;;;2.45;1.27;;;;;;;20.50;38.34;100220.79;;;;-49
2020/01/29 16:21:15;;;;;;;1.69;1.39;;;;;;;20.51;38.28;100222.34;;;;-55
2020/01/29 16:24:15;;;;;;;2.24;1.21;;;;;;;20.53;38.25;100229.69;;;;-47
2020/01/29 16:34:30;;;;;;;2.99;1.29;;;;;;;20.57;38.38;100248.28;;;;-53
2020/01/29 16:40:34;;;;;;;3.27;1.42;;;;;;;20.59;38.36;100265.24;;;;-51
2020/01/29 16:43:29;;;;;;;3.13;1.37;;;;;;;20.59;37.97;100274.30;;;;-51
2020/01/29 16:46:22;;;;;;;2.57;1.20;;;;;;;20.59;38.09;100281.75;;;;-49
2020/01/29 16:49:34;;;;;;;2.09;1.10;;;;;;;20.61;38.18;100290.72;;;;-57
2020/01/29 16:52:15;;;;;;;2.26;1.30;;;;;;;20.62;38.10;100288.14;;;;-55
2020/01/29 16:55:15;;;;;;;1.71;1.23;;;;;;;20.63;38.15;100293.88;;;;-54
2020/01/29 16:58:15;;;;;;;2.44;1.29;;;;;;;20.65;38.29;100293.05;;;;-54
2020/01/29 17:01:15;;;;;;;3.47;1.32;;;;;;;20.66;38.28;100301.47;;;;-57
2020/01/29 17:04:15;;;;;;;3.05;1.45;;;;;;;20.68;38.50;100306.65;;;;-57
2020/01/29 17:07:15;;;;;;;1.51;1.22;;;;;;;20.67;38.61;100311.91;;;;-54
2020/01/29 17:10:15;;;;;;;1.25;1.05;;;;;;;20.67;38.62;100315.67;;;;-55
2020/01/29 17:13:15;;;;;;;1.52;1.23;;;;;;;20.69;38.74;100320.78;;;;-55
2020/01/29 17:16:15;;;;;;;4.26;1.30;;;;;;;20.71;38.79;100328.91;;;;-59
2020/01/29 17:19:14;;;;;;;1.84;1.30;;;;;;;20.71;38.66;100327.17;;;;-58
2020/01/29 17:22:15;;;;;;;1.88;1.27;;;;;;;20.71;38.86;100332.20;;;;-53
2020/01/29 17:25:15;;;;;;;1.45;1.33;;;;;;;20.72;38.79;100338.34;;;;-55